Time;durP1;ratioP1;P1;durP2;ratioP2;P2;SDS_P1;SDS_P2;PMS_P1;PMS_P2;Temp;Humidity;BMP_temperature;BMP_pressure;BME280_temperature;BME280_humidity;BME280_pressure;Samples;Min_cycle;Max_cycle;Signal;HPM_P1;HPM_P2
2023/09/17 00:01:56;;;;;;;0.30;0.30;;;12.10;99.90;;;;;;5111548;28;20069;-74
2023/09/17 00:04:23;;;;;;;1.25;1.15;;;12.20;99.90;;;;;;5109421;28;20594;-73
2023/09/17 00:06:48;;;;;;;0.40;0.40;;;12.20;99.90;;;;;;5110031;28;20040;-73
2023/09/17 00:09:14;;;;;;;0.30;0.30;;;12.10;99.90;;;;;;5110938;28;20069;-72
2023/09/17 00:11:40;;;;;;;0.30;0.30;;;12.10;99.90;;;;;;5111201;28;20043;-72
2023/09/17 00:14:06;;;;;;;0.30;0.30;;;12.10;99.90;;;;;;5110420;28;20146;-73
2023/09/17 00:16:32;;;;;;;0.30;0.30;;;12.10;99.90;;;;;;5110079;28;20047;-73
2023/09/17 00:18:58;;;;;;;0.30;0.30;;;12.00;99.90;;;;;;5111474;28;20055;-74
2023/09/17 00:21:23;;;;;;;;;;;12.00;99.90;;;;;;5112531;28;20051;-73
2023/09/17 00:23:49;;;;;;;0.30;0.30;;;12.00;99.90;;;;;;5111499;28;19927;-73
2023/09/17 00:26:15;;;;;;;0.40;0.40;;;12.00;99.90;;;;;;5108463;28;20118;-74
2023/09/17 00:28:40;;;;;;;0.35;0.35;;;12.00;99.90;;;;;;5111423;28;20036;-73
2023/09/17 00:31:06;;;;;;;0.30;0.30;;;12.00;99.90;;;;;;5111135;28;20054;-73
2023/09/17 00:33:32;;;;;;;0.50;0.50;;;12.00;99.90;;;;;;5111686;28;20528;-73
2023/09/17 00:35:57;;;;;;;0.40;0.40;;;11.90;99.90;;;;;;5109267;28;20036;-73
2023/09/17 00:38:23;;;;;;;0.30;0.30;;;11.90;99.90;;;;;;5109791;28;20048;-73
2023/09/17 00:40:49;;;;;;;0.30;0.30;;;11.90;99.90;;;;;;5110236;28;20055;-73
2023/09/17 00:43:14;;;;;;;0.40;0.40;;;11.90;99.90;;;;;;5111175;28;20039;-73
2023/09/17 00:45:42;;;;;;;0.20;0.20;;;11.90;99.90;;;;;;5110165;28;21287;-74
2023/09/17 00:48:09;;;;;;;0.32;0.32;;;11.90;99.90;;;;;;5108291;28;20043;-73
2023/09/17 00:50:35;;;;;;;0.20;0.20;;;12.00;99.90;;;;;;5110786;28;20043;-74
2023/09/17 00:53:01;;;;;;;0.30;0.30;;;12.00;99.90;;;;;;5110811;28;20074;-74
2023/09/17 00:55:29;;;;;;;0.30;0.30;;;12.00;99.90;;;;;;5111560;27;20047;-73
2023/09/17 00:57:57;;;;;;;0.30;0.30;;;12.00;99.90;;;;;;5108810;28;20394;-73
2023/09/17 01:00:24;;;;;;;0.20;0.20;;;12.00;99.90;;;;;;5117172;27;20097;-73
2023/09/17 01:02:50;;;;;;;0.30;0.30;;;12.00;99.90;;;;;;5111042;28;20054;-73
2023/09/17 01:05:16;;;;;;;;;;;12.00;99.90;;;;;;5109983;28;20422;-73
2023/09/17 01:07:43;;;;;;;0.28;0.28;;;12.00;99.90;;;;;;5109434;28;19924;-74
2023/09/17 01:10:09;;;;;;;0.40;0.40;;;12.00;99.90;;;;;;5110101;28;20055;-73
2023/09/17 01:12:35;;;;;;;0.40;0.40;;;12.00;99.90;;;;;;5110194;28;20058;-73
2023/09/17 01:15:06;;;;;;;0.30;0.30;;;11.90;99.90;;;;;;5109813;27;20055;-74
2023/09/17 01:17:32;;;;;;;0.30;0.30;;;12.00;99.90;;;;;;5108672;28;20083;-73
2023/09/17 01:19:59;;;;;;;0.20;0.20;;;12.00;99.90;;;;;;5110579;28;20061;-74
2023/09/17 01:22:38;;;;;;;0.30;0.30;;;12.00;99.90;;;;;;5108363;28;20091;-74
2023/09/17 01:25:18;;;;;;;0.50;0.50;;;12.00;99.90;;;;;;5109958;28;20421;-74
2023/09/17 01:27:44;;;;;;;0.38;0.38;;;12.10;99.90;;;;;;5109284;28;20047;-73
2023/09/17 01:30:21;;;;;;;0.30;0.30;;;12.10;99.90;;;;;;5109111;28;20776;-73
2023/09/17 01:32:47;;;;;;;0.30;0.30;;;12.10;99.90;;;;;;5109235;28;20944;-73
2023/09/17 01:35:14;;;;;;;;;;;12.10;99.90;;;;;;5110329;28;20059;-74
2023/09/17 01:37:43;;;;;;;0.43;0.43;;;12.10;99.90;;;;;;5110415;28;19927;-73
2023/09/17 01:40:14;;;;;;;0.30;0.30;;;12.00;99.90;;;;;;5108052;28;20830;-74
2023/09/17 01:42:43;;;;;;;0.47;0.47;;;12.10;99.90;;;;;;5110963;28;20044;-73
2023/09/17 01:45:14;;;;;;;0.50;0.50;;;12.10;99.90;;;;;;5106270;28;20063;-73
2023/09/17 01:47:42;;;;;;;0.40;0.40;;;12.10;99.90;;;;;;5110098;28;20113;-73
2023/09/17 01:50:10;;;;;;;0.20;0.20;;;12.10;99.90;;;;;;5108159;28;20112;-73
2023/09/17 01:52:37;;;;;;;0.20;0.20;;;12.20;99.90;;;;;;5107940;28;20481;-74
2023/09/17 01:55:03;;;;;;;;;;;12.10;99.90;;;;;;5109278;28;20551;-73
2023/09/17 01:57:31;;;;;;;0.40;0.40;;;12.10;99.90;;;;;;5110562;28;19928;-73
2023/09/17 01:59:57;;;;;;;0.30;0.30;;;12.10;99.90;;;;;;5113271;28;20392;-73
2023/09/17 02:02:23;;;;;;;0.32;0.32;;;12.10;99.90;;;;;;5109833;28;20054;-73
2023/09/17 02:04:49;;;;;;;0.50;0.50;;;12.10;99.90;;;;;;5109254;28;20043;-73
2023/09/17 02:07:15;;;;;;;0.35;0.35;;;12.20;99.90;;;;;;5109450;28;20048;-72
2023/09/17 02:09:41;;;;;;;0.20;0.20;;;12.20;99.90;;;;;;5108925;28;20059;-71
2023/09/17 02:12:07;;;;;;;0.20;0.20;;;12.30;99.90;;;;;;5107873;28;20046;-74
2023/09/17 02:14:32;;;;;;;0.20;0.20;;;12.30;99.90;;;;;;5111251;28;20063;-74
2023/09/17 02:16:58;;;;;;;0.30;0.30;;;12.40;99.90;;;;;;5113512;28;20054;-73
2023/09/17 02:19:25;;;;;;;0.30;0.30;;;12.40;99.90;;;;;;5112286;28;20044;-73
2023/09/17 02:21:52;;;;;;;0.40;0.40;;;12.40;99.90;;;;;;5112067;28;20381;-73
2023/09/17 02:24:19;;;;;;;1.30;1.27;;;12.40;99.90;;;;;;5113450;27;20063;-73
2023/09/17 02:26:46;;;;;;;0.30;0.30;;;12.40;99.90;;;;;;5113001;28;20082;-73
2023/09/17 02:29:12;;;;;;;0.70;0.70;;;12.50;99.90;;;;;;5113631;28;20130;-74
2023/09/17 02:31:37;;;;;;;0.30;0.30;;;12.50;99.90;;;;;;5111814;27;20673;-73
2023/09/17 02:34:04;;;;;;;0.30;0.30;;;12.50;99.90;;;;;;5112175;28;20073;-73
2023/09/17 02:36:30;;;;;;;0.40;0.40;;;12.60;99.90;;;;;;5111541;28;20087;-74
2023/09/17 02:38:56;;;;;;;0.20;0.20;;;12.60;99.90;;;;;;5113378;28;20393;-73
2023/09/17 02:41:22;;;;;;;0.52;0.52;;;12.70;99.90;;;;;;5111607;28;20043;-73
2023/09/17 02:43:48;;;;;;;;;;;12.70;99.90;;;;;;5114559;28;20508;-73
2023/09/17 02:46:14;;;;;;;1.08;0.73;;;12.80;99.90;;;;;;5111554;28;19920;-74
2023/09/17 02:48:40;;;;;;;0.30;0.30;;;12.80;99.90;;;;;;5113463;28;20104;-73
2023/09/17 02:51:05;;;;;;;0.50;0.50;;;12.80;99.90;;;;;;5113413;28;20047;-74
2023/09/17 02:53:31;;;;;;;0.30;0.30;;;12.80;99.90;;;;;;5112718;28;20498;-74
2023/09/17 02:55:58;;;;;;;0.40;0.40;;;12.80;99.90;;;;;;5112894;28;20059;-74
2023/09/17 02:58:24;;;;;;;0.30;0.30;;;12.80;99.90;;;;;;5111830;28;20377;-74
2023/09/17 03:00:50;;;;;;;0.40;0.40;;;12.70;99.90;;;;;;5113149;28;20043;-73
2023/09/17 03:03:15;;;;;;;;;;;12.80;99.90;;;;;;5112068;28;20131;-73
2023/09/17 03:05:45;;;;;;;0.32;0.32;;;12.70;99.90;;;;;;5114040;28;20002;-73
2023/09/17 03:08:11;;;;;;;0.30;0.30;;;12.80;99.90;;;;;;5112977;28;20104;-74
2023/09/17 03:10:41;;;;;;;0.20;0.20;;;12.80;99.90;;;;;;5112258;28;20569;-73
2023/09/17 03:13:14;;;;;;;0.40;0.40;;;12.80;99.90;;;;;;5109560;28;20051;-74
2023/09/17 03:15:40;;;;;;;0.40;0.40;;;12.90;99.90;;;;;;5104698;28;20048;-73
2023/09/17 03:18:06;;;;;;;0.20;0.20;;;13.00;99.90;;;;;;5111141;28;20047;-73
2023/09/17 03:20:34;;;;;;;0.35;0.35;;;13.00;99.90;;;;;;5111315;28;20048;-74
2023/09/17 03:23:04;;;;;;;0.30;0.30;;;13.00;99.90;;;;;;5113144;28;20096;-73
2023/09/17 03:25:31;;;;;;;0.38;0.38;;;13.10;99.90;;;;;;5111321;28;20051;-74
2023/09/17 03:27:59;;;;;;;0.25;0.25;;;13.10;99.90;;;;;;5111804;28;20071;-74
2023/09/17 03:30:26;;;;;;;0.30;0.30;;;13.10;99.90;;;;;;5110623;28;20438;-74
2023/09/17 03:32:52;;;;;;;0.30;0.30;;;13.20;99.90;;;;;;5112684;28;20084;-73
2023/09/17 03:35:18;;;;;;;0.57;0.57;;;13.20;99.90;;;;;;5110521;28;20516;-73
2023/09/17 03:37:45;;;;;;;0.40;0.40;;;13.30;99.90;;;;;;5109611;28;20036;-73
2023/09/17 03:40:12;;;;;;;0.52;0.52;;;13.30;99.90;;;;;;5110540;28;20436;-73
2023/09/17 03:42:39;;;;;;;0.30;0.30;;;13.40;99.90;;;;;;5111661;28;20058;-74
2023/09/17 03:45:09;;;;;;;0.65;0.65;;;13.50;99.90;;;;;;5111528;28;20074;-74
2023/09/17 03:47:36;;;;;;;0.20;0.20;;;13.60;99.90;;;;;;5112402;28;20311;-72
2023/09/17 03:50:04;;;;;;;0.25;0.25;;;13.60;99.90;;;;;;5111587;28;20040;-72
2023/09/17 03:52:30;;;;;;;0.28;0.28;;;13.60;99.90;;;;;;5111016;28;20511;-72
2023/09/17 03:54:56;;;;;;;0.25;0.25;;;13.60;99.90;;;;;;5111603;28;20055;-72
2023/09/17 03:57:23;;;;;;;0.30;0.30;;;13.70;99.90;;;;;;5110640;28;20123;-73
2023/09/17 03:59:49;;;;;;;0.20;0.20;;;13.70;99.90;;;;;;5109761;27;20401;-73
2023/09/17 04:02:15;;;;;;;0.30;0.30;;;13.70;99.90;;;;;;5112135;28;20043;-73
2023/09/17 04:04:41;;;;;;;0.32;0.32;;;13.70;99.90;;;;;;5111981;28;20044;-72
2023/09/17 04:07:06;;;;;;;0.30;0.30;;;13.80;99.90;;;;;;5111131;28;20089;-73
2023/09/17 04:09:32;;;;;;;;;;;13.80;99.90;;;;;;5111252;28;20051;-73
2023/09/17 04:12:03;;;;;;;0.30;0.30;;;13.90;99.90;;;;;;5112182;28;19971;-73
2023/09/17 04:14:31;;;;;;;0.20;0.20;;;13.90;99.90;;;;;;5111497;28;20050;-73
2023/09/17 04:16:59;;;;;;;0.40;0.40;;;13.90;99.90;;;;;;5111026;28;20052;-73
2023/09/17 04:19:26;;;;;;;0.30;0.30;;;13.90;99.90;;;;;;5093101;28;20123;-73
2023/09/17 04:21:51;;;;;;;;;;;13.90;99.90;;;;;;5110705;28;20047;-72
2023/09/17 04:24:18;;;;;;;0.30;0.30;;;13.90;99.90;;;;;;5111893;28;19920;-72
2023/09/17 04:26:45;;;;;;;0.17;0.17;;;13.90;99.90;;;;;;5110281;28;20523;-73
2023/09/17 04:29:12;;;;;;;;;;;13.90;99.90;;;;;;5106935;28;20048;-73
2023/09/17 04:31:37;;;;;;;;;;;13.90;99.90;;;;;;5106982;28;19920;-73
2023/09/17 04:34:11;;;;;;;0.30;0.30;;;13.90;99.90;;;;;;5112337;28;19923;-73
2023/09/17 04:36:36;;;;;;;0.40;0.40;;;13.90;99.90;;;;;;5110367;28;20457;-73
2023/09/17 04:39:03;;;;;;;0.25;0.25;;;14.00;99.90;;;;;;5108628;28;20078;-73
2023/09/17 04:41:28;;;;;;;0.32;0.32;;;14.00;99.90;;;;;;5109087;28;20055;-73
2023/09/17 04:43:54;;;;;;;0.35;0.35;;;14.00;99.90;;;;;;5111480;28;20043;-73
2023/09/17 04:46:20;;;;;;;0.20;0.20;;;14.00;99.90;;;;;;5111027;28;20058;-72
2023/09/17 04:48:45;;;;;;;0.30;0.30;;;14.00;99.90;;;;;;5109846;27;20046;-73
2023/09/17 04:51:15;;;;;;;0.30;0.30;;;14.10;99.90;;;;;;5100974;28;20482;-72
2023/09/17 04:53:41;;;;;;;0.30;0.30;;;14.10;99.90;;;;;;5110853;28;20051;-72
2023/09/17 04:56:07;;;;;;;0.25;0.25;;;14.10;99.90;;;;;;5110962;28;20131;-72
2023/09/17 04:58:33;;;;;;;0.20;0.20;;;14.20;99.90;;;;;;5108991;28;20051;-73
2023/09/17 05:00:59;;;;;;;0.30;0.30;;;14.20;99.90;;;;;;5109291;28;20047;-73
2023/09/17 05:03:24;;;;;;;0.32;0.32;;;14.20;99.90;;;;;;5109018;28;20117;-74
2023/09/17 05:05:51;;;;;;;;;;;14.30;99.90;;;;;;5111527;28;20043;-73
2023/09/17 05:08:18;;;;;;;0.30;0.30;;;14.30;99.90;;;;;;5110311;28;20340;-72
2023/09/17 05:10:44;;;;;;;0.30;0.30;;;14.40;99.90;;;;;;5105231;28;20043;-72
2023/09/17 05:13:09;;;;;;;0.30;0.30;;;14.40;99.90;;;;;;5109970;28;20184;-72
2023/09/17 05:15:36;;;;;;;0.30;0.30;;;14.40;99.90;;;;;;5100209;28;20054;-73
2023/09/17 05:18:09;;;;;;;0.30;0.30;;;14.50;99.90;;;;;;5090384;28;20501;-72
2023/09/17 05:20:35;;;;;;;0.30;0.30;;;14.50;99.90;;;;;;5107611;28;20079;-72
2023/09/17 05:23:01;;;;;;;0.20;0.20;;;14.50;99.90;;;;;;5108298;28;20047;-73
2023/09/17 05:25:27;;;;;;;0.30;0.30;;;14.50;99.90;;;;;;5108883;28;20077;-73
2023/09/17 05:27:52;;;;;;;0.22;0.22;;;14.60;99.90;;;;;;5109088;28;20035;-72
2023/09/17 05:30:18;;;;;;;;;;;14.60;99.90;;;;;;5109709;28;20505;-73
2023/09/17 05:32:44;;;;;;;0.47;0.40;;;14.60;99.90;;;;;;5105259;28;19981;-72
2023/09/17 05:35:09;;;;;;;0.30;0.30;;;14.70;99.90;;;;;;5110612;28;20692;-72
2023/09/17 05:37:35;;;;;;;0.30;0.30;;;14.70;99.90;;;;;;5109385;28;20105;-72
2023/09/17 05:40:01;;;;;;;0.50;0.50;;;14.70;99.90;;;;;;5105410;28;20502;-73
2023/09/17 05:42:26;;;;;;;0.30;0.30;;;14.70;99.90;;;;;;5106774;28;20050;-73
2023/09/17 05:44:52;;;;;;;0.32;0.32;;;14.60;99.90;;;;;;5109919;28;20043;-72
2023/09/17 05:47:19;;;;;;;0.50;0.50;;;14.60;99.90;;;;;;5109585;28;20046;-72
2023/09/17 05:49:45;;;;;;;0.80;0.80;;;14.60;99.90;;;;;;5109473;28;20070;-72
2023/09/17 05:52:10;;;;;;;0.28;0.28;;;14.60;99.90;;;;;;5109207;28;20086;-72
2023/09/17 05:54:36;;;;;;;;;;;14.60;99.90;;;;;;5108982;28;20043;-73
2023/09/17 05:57:02;;;;;;;0.20;0.20;;;14.60;99.90;;;;;;5091817;28;19920;-73
2023/09/17 05:59:27;;;;;;;0.25;0.25;;;14.70;99.90;;;;;;5116371;28;20038;-72
2023/09/17 06:01:53;;;;;;;0.57;0.35;;;14.80;99.90;;;;;;5108641;28;20075;-72
2023/09/17 06:04:19;;;;;;;;;;;14.80;99.90;;;;;;5110414;28;20080;-73
2023/09/17 06:06:44;;;;;;;0.30;0.30;;;14.90;99.90;;;;;;5109425;28;19931;-73
2023/09/17 06:09:10;;;;;;;0.30;0.30;;;14.90;99.90;;;;;;5108952;28;20047;-73
2023/09/17 06:11:35;;;;;;;;;;;15.00;99.90;;;;;;5110333;28;20550;-73
2023/09/17 06:14:01;;;;;;;0.40;0.40;;;15.10;99.90;;;;;;5106531;28;20295;-73
2023/09/17 06:16:27;;;;;;;;;;;15.10;99.90;;;;;;5102917;28;20108;-73
2023/09/17 06:18:54;;;;;;;0.30;0.30;;;15.20;99.90;;;;;;5109148;28;20294;-73
2023/09/17 06:21:20;;;;;;;0.40;0.40;;;15.20;99.90;;;;;;5109877;28;20126;-73
2023/09/17 06:23:46;;;;;;;;;;;15.30;99.90;;;;;;5108849;28;20110;-73
2023/09/17 06:26:11;;;;;;;0.20;0.20;;;15.40;99.90;;;;;;5109856;28;19924;-73
2023/09/17 06:28:37;;;;;;;;;;;15.40;99.90;;;;;;5109334;28;20058;-74
2023/09/17 06:31:03;;;;;;;0.40;0.30;;;15.50;99.90;;;;;;5109642;28;20364;-73
2023/09/17 06:33:28;;;;;;;;;;;15.50;99.90;;;;;;5109231;28;20040;-73
2023/09/17 06:35:54;;;;;;;0.40;0.40;;;15.60;99.90;;;;;;5108876;28;19928;-73
2023/09/17 06:38:20;;;;;;;0.30;0.30;;;15.60;99.90;;;;;;5109561;28;20062;-73
2023/09/17 06:40:45;;;;;;;0.93;0.85;;;15.70;99.90;;;;;;5109123;28;20057;-73
2023/09/17 06:43:13;;;;;;;0.30;0.30;;;15.80;99.90;;;;;;5109846;28;20135;-73
2023/09/17 06:45:38;;;;;;;0.30;0.30;;;15.80;99.90;;;;;;5108075;28;20074;-73
2023/09/17 06:48:04;;;;;;;;;;;15.90;99.90;;;;;;5109802;28;20071;-73
2023/09/17 06:50:30;;;;;;;0.40;0.40;;;16.00;99.90;;;;;;5109725;28;19924;-73
2023/09/17 06:52:55;;;;;;;;;;;16.10;99.90;;;;;;5108329;28;20398;-73
2023/09/17 06:55:21;;;;;;;0.57;0.30;;;16.10;99.90;;;;;;5104893;28;19923;-74
2023/09/17 06:57:47;;;;;;;;;;;16.20;99.90;;;;;;5101096;28;20051;-73
2023/09/17 07:00:14;;;;;;;1.88;1.75;;;16.30;99.90;;;;;;5117984;27;19920;-74
2023/09/17 07:02:39;;;;;;;0.73;0.32;;;16.30;99.90;;;;;;5112916;28;20051;-74
2023/09/17 07:05:07;;;;;;;;;;;16.40;99.90;;;;;;5112110;27;20139;-74
2023/09/17 07:07:33;;;;;;;0.30;0.30;;;16.50;99.90;;;;;;5112059;28;19923;-74
2023/09/17 07:10:00;;;;;;;;;;;16.50;99.90;;;;;;5109458;28;20392;-74
2023/09/17 07:12:26;;;;;;;0.65;0.65;;;16.60;99.90;;;;;;5113398;28;19926;-73
2023/09/17 07:14:51;;;;;;;;;;;16.70;99.90;;;;;;5109397;28;20051;-74
2023/09/17 07:17:17;;;;;;;0.47;0.47;;;;;;;;;;5112207;28;19924;-74
2023/09/17 07:19:43;;;;;;;;;;;16.80;99.90;;;;;;5112229;28;20043;-73
2023/09/17 07:22:14;;;;;;;0.30;0.30;;;17.00;99.90;;;;;;5113416;27;19920;-73
2023/09/17 07:24:41;;;;;;;1.42;0.63;;;17.00;99.90;;;;;;5111229;28;20529;-73
2023/09/17 07:27:06;;;;;;;0.20;0.20;;;17.20;99.90;;;;;;5112513;28;20528;-73
2023/09/17 07:29:32;;;;;;;;;;;17.20;99.90;;;;;;5113176;27;20047;-73
2023/09/17 07:31:58;;;;;;;0.50;0.50;;;17.40;99.90;;;;;;5107077;28;19923;-73
2023/09/17 07:34:24;;;;;;;;;;;17.50;99.90;;;;;;5112355;28;20091;-73
2023/09/17 07:36:50;;;;;;;1.10;1.00;;;17.60;99.90;;;;;;5111490;28;19928;-73
2023/09/17 07:39:16;;;;;;;;;;;17.80;99.90;;;;;;5113240;28;20293;-73
2023/09/17 07:41:41;;;;;;;0.30;0.30;;;17.90;99.90;;;;;;5111532;28;19926;-73
2023/09/17 07:44:07;;;;;;;;;;;18.00;99.90;;;;;;5112513;28;20058;-74
2023/09/17 07:46:32;;;;;;;0.30;0.30;;;18.20;99.90;;;;;;5111672;28;19980;-73
2023/09/17 07:49:00;;;;;;;;;;;18.30;99.90;;;;;;5112454;28;20119;-73
2023/09/17 07:51:26;;;;;;;0.50;0.50;;;18.40;99.90;;;;;;5112702;28;20373;-73
2023/09/17 07:53:51;;;;;;;;;;;18.50;99.90;;;;;;5111310;28;20036;-73
2023/09/17 07:56:19;;;;;;;0.30;0.30;;;18.60;99.90;;;;;;5112501;28;19920;-73
2023/09/17 07:58:44;;;;;;;2.45;0.52;;;18.60;99.90;;;;;;5110261;28;20585;-73
2023/09/17 08:01:11;;;;;;;0.38;0.35;;;18.60;99.90;;;;;;5112335;28;20134;-73
2023/09/17 08:03:37;;;;;;;0.93;0.93;;;18.70;99.90;;;;;;5111246;28;20045;-73
2023/09/17 08:06:03;;;;;;;0.55;0.55;;;18.60;99.90;;;;;;5111674;28;20385;-73
2023/09/17 08:08:29;;;;;;;1.35;0.93;;;18.60;99.90;;;;;;5111504;28;20044;-73
2023/09/17 08:10:56;;;;;;;0.75;0.75;;;18.60;99.90;;;;;;5110143;28;20066;-73
2023/09/17 08:13:21;;;;;;;0.98;0.80;;;18.50;99.90;;;;;;5112350;28;20149;-73
2023/09/17 08:15:50;;;;;;;0.32;0.32;;;18.50;99.90;;;;;;5111481;28;20462;-74
2023/09/17 08:18:17;;;;;;;0.55;0.43;;;18.60;99.90;;;;;;5111221;28;20083;-73
2023/09/17 08:20:42;;;;;;;0.20;0.20;;;18.60;99.90;;;;;;5111741;28;20046;-74
2023/09/17 08:23:08;;;;;;;0.60;0.60;;;18.70;99.90;;;;;;5111961;28;20040;-74
2023/09/17 08:25:34;;;;;;;;;;;18.70;99.90;;;;;;5109059;28;20052;-74
2023/09/17 08:27:59;;;;;;;1.98;0.50;;;18.70;99.90;;;;;;5084353;28;19973;-75
2023/09/17 08:30:25;;;;;;;0.45;0.45;;;18.70;99.90;;;;;;5100998;28;20063;-74
2023/09/17 08:32:51;;;;;;;;;;;18.80;99.90;;;;;;5106079;28;20043;-74
2023/09/17 08:35:16;;;;;;;0.88;0.80;;;18.80;99.90;;;;;;5110583;27;19930;-73
2023/09/17 08:37:43;;;;;;;;;;;18.80;99.90;;;;;;5110022;28;20083;-75
2023/09/17 08:40:13;;;;;;;1.25;1.02;;;18.80;99.90;;;;;;5103500;28;20010;-74
2023/09/17 08:42:43;;;;;;;0.63;0.63;;;18.90;99.90;;;;;;5102037;28;20050;-74
2023/09/17 08:45:10;;;;;;;1.38;1.27;;;18.90;99.90;;;;;;5106099;28;20040;-74
2023/09/17 08:47:39;;;;;;;0.50;0.50;;;19.00;99.90;;;;;;5099142;28;20040;-74
2023/09/17 08:50:09;;;;;;;0.43;0.43;;;19.00;99.90;;;;;;5103373;28;20046;-74
2023/09/17 08:52:37;;;;;;;6.13;0.80;;;19.10;99.90;;;;;;5098715;28;20044;-74
2023/09/17 08:55:08;;;;;;;0.50;0.50;;;19.20;99.90;;;;;;5102570;28;20051;-74
2023/09/17 08:57:35;;;;;;;0.73;0.73;;;19.20;99.90;;;;;;5108312;28;20104;-73
2023/09/17 09:00:14;;;;;;;0.30;0.30;;;19.20;99.90;;;;;;5105281;28;20040;-73
2023/09/17 09:02:48;;;;;;;0.43;0.43;;;19.20;99.90;;;;;;5105060;27;20131;-73
2023/09/17 09:05:16;;;;;;;0.22;0.22;;;19.20;99.90;;;;;;5105870;28;20032;-73
2023/09/17 09:07:47;;;;;;;0.57;0.57;;;19.10;99.90;;;;;;5104964;28;20120;-73
2023/09/17 09:10:14;;;;;;;0.52;0.47;;;19.00;99.90;;;;;;5102834;28;20059;-73
2023/09/17 09:12:45;;;;;;;0.20;0.20;;;19.00;99.90;;;;;;5105401;28;20078;-73
2023/09/17 09:15:11;;;;;;;0.70;0.70;;;19.00;99.90;;;;;;5107942;28;20050;-74
2023/09/17 09:17:40;;;;;;;1.38;1.27;;;19.10;99.90;;;;;;5106490;28;20127;-73
2023/09/17 09:20:10;;;;;;;0.77;0.50;;;19.10;99.90;;;;;;5105017;28;20039;-73
2023/09/17 09:22:37;;;;;;;1.13;0.82;;;19.20;99.90;;;;;;5104237;28;20082;-73
2023/09/17 09:25:06;;;;;;;0.25;0.25;;;19.30;99.90;;;;;;5105199;28;20458;-73
2023/09/17 09:27:32;;;;;;;0.60;0.60;;;19.30;99.90;;;;;;5107064;28;20134;-73
2023/09/17 09:29:58;;;;;;;0.73;0.63;;;19.20;99.90;;;;;;5102968;28;20050;-72
2023/09/17 09:32:24;;;;;;;0.38;0.38;;;19.20;99.90;;;;;;5100968;28;20051;-73
2023/09/17 09:34:51;;;;;;;1.70;0.50;;;18.90;99.90;;;;;;5104235;28;20055;-73
2023/09/17 09:37:22;;;;;;;1.67;1.15;;;18.70;99.90;;;;;;5108948;28;20039;-73
2023/09/17 09:39:48;;;;;;;2.90;0.82;;;18.60;99.90;;;;;;5099062;28;20055;-73
2023/09/17 09:42:15;;;;;;;0.52;0.50;;;18.60;99.90;;;;;;5106148;28;20047;-74
2023/09/17 09:44:40;;;;;;;0.35;0.28;;;18.60;99.90;;;;;;5099121;28;20052;-74
2023/09/17 09:47:06;;;;;;;0.88;0.88;;;18.60;99.90;;;;;;5099786;28;20051;-74
2023/09/17 09:49:44;;;;;;;;;;;18.70;99.90;;;;;;5099652;28;20035;-72
2023/09/17 09:52:14;;;;;;;0.38;0.38;;;18.70;99.90;;;;;;5105612;28;19927;-72
2023/09/17 09:54:41;;;;;;;0.22;0.22;;;18.60;99.90;;;;;;5105816;28;20077;-74
2023/09/17 09:57:07;;;;;;;0.47;0.47;;;18.60;99.90;;;;;;5102420;28;20135;-72
2023/09/17 09:59:34;;;;;;;0.50;0.50;;;18.50;99.90;;;;;;5098834;28;20558;-72
2023/09/17 10:02:04;;;;;;;0.30;0.30;;;18.50;99.90;;;;;;5101796;28;20052;-72
2023/09/17 10:04:31;;;;;;;0.60;0.60;;;18.50;99.90;;;;;;5105773;28;20047;-72
2023/09/17 10:06:57;;;;;;;0.40;0.40;;;18.50;99.90;;;;;;5106976;28;20055;-73
2023/09/17 10:09:26;;;;;;;0.40;0.40;;;18.50;99.90;;;;;;5107929;28;20039;-73
2023/09/17 10:11:55;;;;;;;0.35;0.35;;;18.50;99.90;;;;;;5098506;28;20059;-73
2023/09/17 10:14:21;;;;;;;0.20;0.20;;;18.60;99.90;;;;;;5100941;28;20155;-73
2023/09/17 10:16:49;;;;;;;0.30;0.30;;;18.60;99.90;;;;;;5106661;28;20081;-73
2023/09/17 10:19:20;;;;;;;1.67;1.13;;;18.70;99.90;;;;;;5107825;28;20083;-73
2023/09/17 10:21:50;;;;;;;0.55;0.55;;;18.80;99.90;;;;;;5101154;28;20190;-73
2023/09/17 10:24:18;;;;;;;0.20;0.20;;;18.90;99.90;;;;;;5106960;28;20588;-73
2023/09/17 10:26:45;;;;;;;0.38;0.38;;;18.90;99.90;;;;;;5101025;28;20409;-73
2023/09/17 10:29:16;;;;;;;0.50;0.50;;;19.00;99.90;;;;;;5109008;28;20066;-73
2023/09/17 10:31:43;;;;;;;0.43;0.43;;;19.10;99.90;;;;;;5103026;28;20123;-73
2023/09/17 10:34:09;;;;;;;0.68;0.68;;;19.10;99.90;;;;;;5101514;28;20048;-73
2023/09/17 10:36:38;;;;;;;0.45;0.45;;;19.10;99.90;;;;;;5110342;28;20080;-73
2023/09/17 10:39:09;;;;;;;0.25;0.25;;;19.10;99.90;;;;;;5108467;28;20046;-73
2023/09/17 10:41:37;;;;;;;0.25;0.25;;;19.10;99.90;;;;;;5106040;28;20099;-74
2023/09/17 10:44:04;;;;;;;0.52;0.52;;;19.10;99.90;;;;;;5106201;28;20044;-73
2023/09/17 10:46:31;;;;;;;0.30;0.30;;;19.10;99.90;;;;;;5107316;28;20051;-73
2023/09/17 10:48:58;;;;;;;0.30;0.30;;;19.10;99.90;;;;;;5100607;28;20048;-74
2023/09/17 10:51:26;;;;;;;0.28;0.28;;;19.20;99.90;;;;;;5112583;28;20047;-73
2023/09/17 10:53:53;;;;;;;0.40;0.40;;;19.10;99.90;;;;;;5109064;27;20051;-74
2023/09/17 10:56:20;;;;;;;0.20;0.20;;;19.10;99.90;;;;;;5107610;28;20535;-74
2023/09/17 10:58:49;;;;;;;0.20;0.20;;;19.10;99.90;;;;;;5103930;28;20443;-74
2023/09/17 11:01:17;;;;;;;0.45;0.45;;;19.10;99.90;;;;;;5111936;28;20052;-73
2023/09/17 11:03:49;;;;;;;0.20;0.20;;;19.30;99.90;;;;;;5109293;28;20039;-74
2023/09/17 11:06:23;;;;;;;0.20;0.20;;;19.50;99.90;;;;;;5099610;27;20036;-74
2023/09/17 11:08:51;;;;;;;0.30;0.30;;;19.70;99.90;;;;;;5110319;28;20047;-74
2023/09/17 11:11:18;;;;;;;0.28;0.28;;;19.70;99.90;;;;;;5111580;28;20078;-74
2023/09/17 11:13:46;;;;;;;0.30;0.30;;;;;;;;;;5107489;28;20053;-74
2023/09/17 11:16:15;;;;;;;0.20;0.20;;;;;;;;;;5110154;28;20151;-74
2023/09/17 11:18:45;;;;;;;0.20;0.20;;;19.90;99.90;;;;;;5101209;28;20043;-73
2023/09/17 11:21:12;;;;;;;0.20;0.20;;;19.90;99.90;;;;;;5109313;28;20055;-74
2023/09/17 11:23:47;;;;;;;0.60;0.60;;;20.00;99.90;;;;;;5109003;28;20151;-74
2023/09/17 11:26:20;;;;;;;0.35;0.35;;;19.80;99.90;;;;;;5108275;28;20056;-74
2023/09/17 11:28:55;;;;;;;0.20;0.20;;;19.90;99.90;;;;;;5110082;28;20067;-74
2023/09/17 11:31:22;;;;;;;1.55;0.50;;;19.90;99.90;;;;;;5110692;27;20493;-74
2023/09/17 11:33:48;;;;;;;0.20;0.20;;;19.70;99.90;;;;;;5106706;28;20509;-74
2023/09/17 11:36:14;;;;;;;0.22;0.22;;;20.10;99.90;;;;;;5104959;27;20052;-74
2023/09/17 11:38:46;;;;;;;0.28;0.28;;;20.30;99.90;;;;;;5107656;28;20497;-72
2023/09/17 11:41:15;;;;;;;0.50;0.50;;;20.30;99.90;;;;;;5107885;27;20105;-74
2023/09/17 11:43:50;;;;;;;0.63;0.50;;;20.50;99.90;;;;;;5108867;28;20051;-73
2023/09/17 11:46:18;;;;;;;0.90;0.90;;;20.60;99.90;;;;;;5096892;28;20112;-74
2023/09/17 11:48:44;;;;;;;0.38;0.30;;;20.80;99.90;;;;;;5101202;28;20048;-73
2023/09/17 11:51:17;;;;;;;0.85;0.85;;;21.00;99.90;;;;;;5105874;27;20073;-73
2023/09/17 11:54:00;;;;;;;1.90;0.73;;;20.90;99.90;;;;;;5107584;28;20079;-74
2023/09/17 11:56:31;;;;;;;0.43;0.43;;;20.80;99.90;;;;;;5109847;28;20043;-73
2023/09/17 11:59:04;;;;;;;0.28;0.28;;;20.70;99.90;;;;;;5107026;28;20059;-73
2023/09/17 12:01:38;;;;;;;0.20;0.20;;;20.70;99.90;;;;;;5108902;28;20044;-73
2023/09/17 12:04:06;;;;;;;0.32;0.32;;;20.70;99.90;;;;;;5108427;28;20119;-73
2023/09/17 12:06:37;;;;;;;0.20;0.20;;;20.50;99.90;;;;;;5104114;28;20040;-73
2023/09/17 12:09:10;;;;;;;0.40;0.40;;;20.20;99.90;;;;;;5111141;27;20039;-74
2023/09/17 12:11:36;;;;;;;0.50;0.50;;;20.20;99.90;;;;;;5106336;28;20040;-73
2023/09/17 12:14:06;;;;;;;0.68;0.68;;;20.30;99.90;;;;;;5107732;27;20054;-74
2023/09/17 12:16:32;;;;;;;0.20;0.20;;;20.50;99.90;;;;;;5104256;28;20047;-73
2023/09/17 12:18:58;;;;;;;0.22;0.22;;;20.40;99.90;;;;;;5110138;28;20044;-73
2023/09/17 12:21:27;;;;;;;0.20;0.20;;;20.30;99.90;;;;;;5109712;28;20152;-73
2023/09/17 12:26:27;;;;;;;0.20;0.20;;;20.20;99.90;;;;;;5102352;28;20063;-72
2023/09/17 12:28:52;;;;;;;0.45;0.45;;;20.60;99.90;;;;;;5095287;28;20044;-73
2023/09/17 12:31:19;;;;;;;0.30;0.30;;;21.00;99.90;;;;;;5103074;28;20047;-74
2023/09/17 12:33:45;;;;;;;0.15;0.15;;;21.50;99.90;;;;;;5103895;28;20547;-74
2023/09/17 12:36:11;;;;;;;0.32;0.32;;;22.30;99.90;;;;;;5105156;28;20130;-74
2023/09/17 12:38:37;;;;;;;0.28;0.28;;;;;;;;;;5107484;28;20073;-74
2023/09/17 12:41:04;;;;;;;0.68;0.68;;;;;;;;;;5107309;28;20134;-74
2023/09/17 12:43:30;;;;;;;0.20;0.20;;;23.40;99.90;;;;;;5104567;28;20203;-74
2023/09/17 12:45:55;;;;;;;0.22;0.22;;;23.40;99.90;;;;;;5106815;27;20398;-74
2023/09/17 12:48:22;;;;;;;0.77;0.77;;;;;;;;;;5102264;28;20073;-74
2023/09/17 12:50:50;;;;;;;0.35;0.35;;;;;;;;;;5103257;28;20055;-75
2023/09/17 12:53:18;;;;;;;1.00;0.85;;;;;;;;;;5107599;28;20074;-74
2023/09/17 12:55:44;;;;;;;0.40;0.40;;;;;;;;;;5107612;28;20538;-74
2023/09/17 12:58:11;;;;;;;0.65;0.63;;;;;;;;;;5100453;28;20098;-74
2023/09/17 13:00:37;;;;;;;0.15;0.15;;;;;;;;;;5094042;28;20040;-74
2023/09/17 13:03:11;;;;;;;0.32;0.32;;;;;;;;;;5100862;28;20079;-74